Time;durP1;ratioP1;P1;durP2;ratioP2;P2;SDS_P1;SDS_P2;PMS_P1;PMS_P2;Temp;Humidity;BMP_temperature;BMP_pressure;BME280_temperature;BME280_humidity;BME280_pressure;Samples;Min_cycle;Max_cycle;Signal;HPM_P1;HPM_P2
2023/09/22 00:02:02;;;;;;;0.77;0.52;;;24.00;53.80;;;;;;5110473;27;45546;-73
2023/09/22 00:04:31;;;;;;;0.50;0.50;;;24.00;53.80;;;;;;5109873;27;46323;-74
2023/09/22 00:06:58;;;;;;;0.57;0.52;;;23.90;53.80;;;;;;5109933;27;45255;-73
2023/09/22 00:09:24;;;;;;;0.35;0.32;;;23.90;53.90;;;;;;5109806;27;45211;-73
2023/09/22 00:11:51;;;;;;;0.52;0.30;;;23.90;53.90;;;;;;5110011;27;45363;-73
2023/09/22 00:14:18;;;;;;;0.40;0.40;;;23.90;53.90;;;;;;5109530;27;46398;-74
2023/09/22 00:16:45;;;;;;;1.23;0.60;;;23.90;53.90;;;;;;5106389;27;45382;-73
2023/09/22 00:19:12;;;;;;;1.35;0.70;;;23.90;53.80;;;;;;5109535;27;45273;-73
2023/09/22 00:21:41;;;;;;;0.52;0.50;;;23.80;53.80;;;;;;5107031;27;45311;-73
2023/09/22 00:24:08;;;;;;;0.40;0.40;;;23.80;53.80;;;;;;5109396;27;46697;-73
2023/09/22 00:26:34;;;;;;;0.20;0.20;;;23.80;53.80;;;;;;5109334;27;45387;-73
2023/09/22 00:29:01;;;;;;;0.40;0.40;;;23.80;53.80;;;;;;5109450;27;45231;-73
2023/09/22 00:31:28;;;;;;;0.52;0.43;;;23.80;53.80;;;;;;5109741;27;45223;-73
2023/09/22 00:33:55;;;;;;;1.10;0.50;;;23.80;53.80;;;;;;5109313;27;47380;-73
2023/09/22 00:36:22;;;;;;;0.45;0.40;;;23.80;53.80;;;;;;5108986;27;45433;-74
2023/09/22 00:38:50;;;;;;;0.43;0.43;;;23.80;53.90;;;;;;5109751;27;45381;-73
2023/09/22 00:41:17;;;;;;;0.52;0.40;;;23.70;53.80;;;;;;5109463;27;45254;-73
2023/09/22 00:43:44;;;;;;;0.50;0.50;;;23.70;53.80;;;;;;5109214;27;45219;-73
2023/09/22 00:46:12;;;;;;;0.47;0.47;;;23.70;53.80;;;;;;5109580;27;45324;-73
2023/09/22 00:48:39;;;;;;;0.38;0.38;;;23.70;53.80;;;;;;5109260;27;45310;-73
2023/09/22 00:51:06;;;;;;;0.30;0.30;;;23.70;53.80;;;;;;5109402;27;45356;-73
2023/09/22 00:53:34;;;;;;;0.40;0.40;;;23.70;53.90;;;;;;5108901;27;45277;-73
2023/09/22 00:56:02;;;;;;;0.40;0.40;;;23.70;53.80;;;;;;5108890;27;45427;-73
2023/09/22 00:58:29;;;;;;;0.43;0.43;;;23.70;53.80;;;;;;5109197;27;45307;-73
2023/09/22 01:00:56;;;;;;;1.25;0.32;;;23.60;53.80;;;;;;5108239;27;45352;-72
2023/09/22 01:03:23;;;;;;;0.40;0.40;;;23.60;53.70;;;;;;5108437;27;45493;-72
2023/09/22 01:05:50;;;;;;;0.40;0.40;;;23.60;53.80;;;;;;5108949;27;45179;-73
2023/09/22 01:08:18;;;;;;;1.60;0.50;;;23.60;53.80;;;;;;5108843;27;45328;-73
2023/09/22 01:10:46;;;;;;;0.38;0.38;;;23.60;53.80;;;;;;5108903;27;45249;-73
2023/09/22 01:13:15;;;;;;;0.30;0.30;;;23.60;53.80;;;;;;5108816;27;45400;-73
2023/09/22 01:15:42;;;;;;;0.85;0.40;;;23.50;53.80;;;;;;5108725;27;45291;-73
2023/09/22 01:18:10;;;;;;;0.40;0.40;;;23.50;53.80;;;;;;5109442;27;45421;-73
2023/09/22 01:20:40;;;;;;;0.52;0.43;;;23.50;53.80;;;;;;5108614;27;45508;-73
2023/09/22 01:23:08;;;;;;;0.40;0.40;;;23.50;53.70;;;;;;5108720;27;46297;-73
2023/09/22 01:25:36;;;;;;;1.42;0.50;;;23.50;53.80;;;;;;5108570;27;45319;-74
2023/09/22 01:28:03;;;;;;;0.85;0.55;;;23.50;53.70;;;;;;5108646;27;45173;-73
2023/09/22 01:30:32;;;;;;;0.43;0.43;;;23.50;53.80;;;;;;5108633;27;45272;-73
2023/09/22 01:33:02;;;;;;;0.68;0.50;;;23.50;53.80;;;;;;5108172;27;46492;-73
2023/09/22 01:35:29;;;;;;;0.32;0.32;;;23.40;53.70;;;;;;5108236;27;45198;-73
2023/09/22 01:37:58;;;;;;;0.47;0.47;;;23.40;53.80;;;;;;5108324;27;45327;-73
2023/09/22 01:40:26;;;;;;;0.30;0.30;;;23.40;53.70;;;;;;5108563;27;45326;-74
2023/09/22 01:42:53;;;;;;;0.40;0.20;;;23.40;53.70;;;;;;5107922;27;46404;-73
2023/09/22 01:45:20;;;;;;;0.40;0.40;;;23.40;53.80;;;;;;5108080;27;45281;-73
2023/09/22 01:47:47;;;;;;;0.30;0.30;;;23.40;53.80;;;;;;5108005;27;45373;-75
2023/09/22 01:50:14;;;;;;;0.52;0.17;;;23.40;53.80;;;;;;5107586;27;45541;-73
2023/09/22 01:52:41;;;;;;;0.43;0.43;;;23.40;53.80;;;;;;5107733;27;45370;-73
2023/09/22 01:55:09;;;;;;;0.30;0.30;;;23.40;53.80;;;;;;5107859;27;45146;-73
2023/09/22 01:57:37;;;;;;;0.57;0.40;;;23.30;53.70;;;;;;5107952;27;45183;-73
2023/09/22 02:00:06;;;;;;;0.35;0.35;;;23.30;53.70;;;;;;5108105;27;45298;-73
2023/09/22 02:02:33;;;;;;;0.50;0.40;;;23.40;53.80;;;;;;5107826;27;46391;-73
2023/09/22 02:05:01;;;;;;;0.30;0.30;;;23.30;53.70;;;;;;5107510;27;45346;-73
2023/09/22 02:07:27;;;;;;;0.88;0.50;;;23.30;53.70;;;;;;5107646;27;45421;-73
2023/09/22 02:09:54;;;;;;;0.50;0.50;;;23.30;53.80;;;;;;5108111;27;45221;-73
2023/09/22 02:12:23;;;;;;;0.13;0.13;;;23.30;53.80;;;;;;5107664;27;45455;-73
2023/09/22 02:14:51;;;;;;;0.47;0.47;;;23.30;53.80;;;;;;5107853;27;45260;-73
2023/09/22 02:17:18;;;;;;;0.17;0.17;;;23.30;53.80;;;;;;5107738;27;45257;-73
2023/09/22 02:19:45;;;;;;;0.40;0.40;;;23.30;53.80;;;;;;5108030;27;45287;-73
2023/09/22 02:22:11;;;;;;;0.30;0.30;;;23.20;53.70;;;;;;5107823;27;45269;-73
2023/09/22 02:24:39;;;;;;;0.95;0.40;;;23.20;53.80;;;;;;5107466;27;45309;-73
2023/09/22 02:27:06;;;;;;;0.32;0.32;;;23.20;53.80;;;;;;5107799;27;45259;-73
2023/09/22 02:29:32;;;;;;;0.30;0.30;;;23.20;53.80;;;;;;5107805;27;45190;-73
2023/09/22 02:32:01;;;;;;;0.50;0.50;;;23.20;53.70;;;;;;5107445;27;46734;-73
2023/09/22 02:34:27;;;;;;;0.35;0.35;;;23.20;53.80;;;;;;5107279;27;45405;-72
2023/09/22 02:36:55;;;;;;;0.40;0.40;;;23.20;53.80;;;;;;5106883;27;45251;-73
2023/09/22 02:39:22;;;;;;;0.70;0.50;;;23.20;53.80;;;;;;5107672;27;45320;-74
2023/09/22 02:41:49;;;;;;;0.30;0.30;;;23.20;53.70;;;;;;5107261;27;45606;-73
2023/09/22 02:44:18;;;;;;;1.10;0.47;;;23.20;53.70;;;;;;5107334;27;45306;-73
2023/09/22 02:46:45;;;;;;;0.40;0.40;;;23.20;53.70;;;;;;5107386;27;45255;-74
2023/09/22 02:49:13;;;;;;;0.22;0.22;;;23.20;53.70;;;;;;5107534;27;45259;-73
2023/09/22 02:51:40;;;;;;;0.40;0.40;;;23.20;53.70;;;;;;5107024;27;45586;-73
2023/09/22 02:54:07;;;;;;;0.30;0.30;;;23.20;53.70;;;;;;5107221;27;45397;-73
2023/09/22 02:56:34;;;;;;;0.30;0.30;;;23.20;53.70;;;;;;5107716;27;45146;-73
2023/09/22 02:59:01;;;;;;;0.47;0.47;;;23.10;53.70;;;;;;5107746;27;45322;-75
2023/09/22 03:01:27;;;;;;;0.30;0.30;;;23.10;54.00;;;;;;5106937;27;47260;-74
2023/09/22 03:03:54;;;;;;;0.50;0.50;;;23.10;53.70;;;;;;5107067;27;45456;-74
2023/09/22 03:06:22;;;;;;;0.40;0.40;;;23.10;53.70;;;;;;5107274;27;45367;-73
2023/09/22 03:08:49;;;;;;;0.35;0.35;;;23.10;53.70;;;;;;5107365;27;45187;-73
2023/09/22 03:11:16;;;;;;;0.50;0.50;;;23.10;53.70;;;;;;5106732;27;46413;-73
2023/09/22 03:13:43;;;;;;;0.30;0.30;;;23.10;53.70;;;;;;5106999;27;45278;-73
2023/09/22 03:16:10;;;;;;;0.40;0.40;;;23.00;53.70;;;;;;5107329;27;45496;-73
2023/09/22 03:18:36;;;;;;;0.43;0.43;;;23.10;53.70;;;;;;5109289;27;45437;-73
2023/09/22 03:21:03;;;;;;;0.40;0.40;;;23.00;53.60;;;;;;5109606;27;45533;-73
2023/09/22 03:23:32;;;;;;;0.40;0.40;;;23.00;53.60;;;;;;5110409;27;45195;-73
2023/09/22 03:25:58;;;;;;;0.50;0.50;;;23.00;53.60;;;;;;5110515;27;45306;-73
2023/09/22 03:28:25;;;;;;;0.20;0.20;;;23.00;53.60;;;;;;5110748;27;45494;-73
2023/09/22 03:30:52;;;;;;;0.40;0.40;;;23.00;53.60;;;;;;5110405;27;45491;-73
2023/09/22 03:33:19;;;;;;;0.20;0.20;;;23.00;53.60;;;;;;5110161;27;45308;-74
2023/09/22 03:35:46;;;;;;;0.40;0.40;;;23.00;53.60;;;;;;5110002;27;45245;-73
2023/09/22 03:38:15;;;;;;;0.40;0.38;;;23.00;53.60;;;;;;5110655;27;45309;-73
2023/09/22 03:40:43;;;;;;;0.32;0.32;;;23.00;53.60;;;;;;5109827;27;45354;-73
2023/09/22 03:43:10;;;;;;;0.40;0.40;;;23.00;53.60;;;;;;5110246;27;45324;-73
2023/09/22 03:45:37;;;;;;;0.30;0.30;;;23.00;53.60;;;;;;5110336;27;45116;-73
2023/09/22 03:48:04;;;;;;;0.47;0.43;;;23.00;53.60;;;;;;5110814;27;45219;-73
2023/09/22 03:50:31;;;;;;;0.30;0.30;;;23.00;53.60;;;;;;5109836;27;46351;-73
2023/09/22 03:52:58;;;;;;;0.30;0.30;;;22.90;53.60;;;;;;5109827;27;45496;-73
2023/09/22 03:55:25;;;;;;;0.63;0.30;;;22.90;53.60;;;;;;5110079;27;45357;-73
2023/09/22 03:57:55;;;;;;;0.17;0.17;;;22.90;53.60;;;;;;5110220;27;45261;-73
2023/09/22 04:00:28;;;;;;;0.47;0.47;;;22.90;53.60;;;;;;5109582;27;46751;-73
2023/09/22 04:02:55;;;;;;;0.32;0.32;;;22.90;53.60;;;;;;5109771;27;45245;-73
2023/09/22 04:05:21;;;;;;;0.28;0.28;;;22.90;53.60;;;;;;5109875;27;45354;-73
2023/09/22 04:07:48;;;;;;;0.43;0.35;;;22.90;53.60;;;;;;5109341;27;45395;-73
2023/09/22 04:10:16;;;;;;;0.40;0.40;;;22.90;53.50;;;;;;5109877;27;47018;-73
2023/09/22 04:12:43;;;;;;;0.25;0.25;;;22.90;53.60;;;;;;5110418;27;45239;-73
2023/09/22 04:15:13;;;;;;;0.80;0.47;;;22.90;53.50;;;;;;5110226;27;45238;-73
2023/09/22 04:17:40;;;;;;;0.30;0.30;;;22.90;53.60;;;;;;5110451;27;45469;-73
2023/09/22 04:20:09;;;;;;;0.40;0.30;;;22.90;53.60;;;;;;5110130;27;47789;-73
2023/09/22 04:22:36;;;;;;;0.40;0.40;;;22.80;53.50;;;;;;5109990;27;45307;-73
2023/09/22 04:25:08;;;;;;;0.65;0.40;;;22.90;53.50;;;;;;5111160;27;45319;-73
2023/09/22 04:27:40;;;;;;;0.50;0.40;;;22.80;53.50;;;;;;5110168;27;45315;-73
2023/09/22 04:30:11;;;;;;;0.40;0.35;;;22.80;53.50;;;;;;5109645;27;47925;-73
2023/09/22 04:32:39;;;;;;;0.20;0.20;;;22.80;53.50;;;;;;5110023;27;45260;-73
2023/09/22 04:35:09;;;;;;;0.47;0.40;;;22.80;53.50;;;;;;5107938;27;45174;-73
2023/09/22 04:37:36;;;;;;;0.85;0.40;;;22.80;53.50;;;;;;5109995;27;45522;-72
2023/09/22 04:40:09;;;;;;;0.30;0.30;;;22.80;53.50;;;;;;5110034;27;45758;-73
2023/09/22 04:42:36;;;;;;;0.30;0.30;;;22.80;53.50;;;;;;5109682;27;45462;-73
2023/09/22 04:45:04;;;;;;;0.65;0.50;;;22.80;53.50;;;;;;5110063;27;45324;-73
2023/09/22 04:47:30;;;;;;;0.20;0.20;;;22.80;53.50;;;;;;5109983;27;45270;-73
2023/09/22 04:49:59;;;;;;;0.70;0.50;;;22.80;53.50;;;;;;5108781;27;45496;-73
2023/09/22 04:52:26;;;;;;;0.30;0.30;;;22.70;53.40;;;;;;5109096;27;45361;-73
2023/09/22 04:54:53;;;;;;;0.35;0.35;;;22.70;53.50;;;;;;5109150;27;45309;-72
2023/09/22 04:57:20;;;;;;;0.40;0.40;;;22.80;53.50;;;;;;5109742;27;45233;-73
2023/09/22 04:59:47;;;;;;;0.40;0.40;;;22.70;53.50;;;;;;5108873;27;45511;-72
2023/09/22 05:02:14;;;;;;;0.30;0.30;;;22.70;53.50;;;;;;5108761;27;45323;-73
2023/09/22 05:04:41;;;;;;;0.45;0.45;;;22.70;53.50;;;;;;5109555;27;45448;-73
2023/09/22 05:07:09;;;;;;;0.28;0.28;;;22.70;53.50;;;;;;5109410;27;45429;-73
2023/09/22 05:09:36;;;;;;;0.50;0.30;;;22.70;53.50;;;;;;5108953;27;45284;-74
2023/09/22 05:12:03;;;;;;;0.40;0.40;;;22.70;53.50;;;;;;5109317;27;45184;-74
2023/09/22 05:14:30;;;;;;;0.35;0.35;;;22.70;53.50;;;;;;5109579;27;45355;-74
2023/09/22 05:16:57;;;;;;;0.85;0.22;;;22.70;53.50;;;;;;5111703;27;45455;-74
2023/09/22 05:19:25;;;;;;;0.60;0.38;;;22.70;53.50;;;;;;5109037;27;46548;-74
2023/09/22 05:21:52;;;;;;;0.75;0.35;;;22.70;53.50;;;;;;5109468;27;45266;-74
2023/09/22 05:24:20;;;;;;;0.63;0.40;;;22.70;53.50;;;;;;5109696;27;45187;-74
2023/09/22 05:26:47;;;;;;;0.50;0.50;;;22.60;53.50;;;;;;5109385;27;45659;-74
2023/09/22 05:29:14;;;;;;;0.45;0.40;;;22.70;53.50;;;;;;5109929;27;46892;-73
2023/09/22 05:31:41;;;;;;;0.20;0.20;;;22.70;54.10;;;;;;5109239;27;45219;-74
2023/09/22 05:34:08;;;;;;;0.65;0.22;;;22.70;54.10;;;;;;5109237;27;45326;-74
2023/09/22 05:36:34;;;;;;;0.47;0.38;;;22.60;53.50;;;;;;5109783;27;45234;-73
2023/09/22 05:39:01;;;;;;;0.47;0.47;;;22.70;53.50;;;;;;5110042;27;47261;-74
2023/09/22 05:41:30;;;;;;;0.40;0.40;;;22.60;53.50;;;;;;5108336;27;45389;-75
2023/09/22 05:43:57;;;;;;;0.22;0.22;;;22.60;53.50;;;;;;5108204;27;45229;-74
2023/09/22 05:46:24;;;;;;;0.20;0.20;;;22.60;53.50;;;;;;5109419;27;45176;-74
2023/09/22 05:48:52;;;;;;;0.30;0.30;;;22.60;53.40;;;;;;5108523;27;46273;-74
2023/09/22 05:51:19;;;;;;;0.30;0.30;;;22.60;53.50;;;;;;5109246;27;45311;-74
2023/09/22 05:53:45;;;;;;;0.30;0.30;;;22.60;53.50;;;;;;5109122;27;45433;-74
2023/09/22 05:56:12;;;;;;;0.73;0.40;;;22.60;53.50;;;;;;5109249;27;45468;-74
2023/09/22 05:58:41;;;;;;;0.47;0.40;;;22.60;53.50;;;;;;5110052;27;45199;-74
2023/09/22 06:01:08;;;;;;;0.77;0.32;;;22.60;53.50;;;;;;5110844;27;45297;-74
2023/09/22 06:03:36;;;;;;;0.20;0.20;;;22.60;53.60;;;;;;5109743;27;45312;-74
2023/09/22 06:06:06;;;;;;;0.30;0.30;;;22.60;53.60;;;;;;5109342;27;45306;-74
2023/09/22 06:08:33;;;;;;;0.52;0.40;;;22.60;53.50;;;;;;5109673;27;46711;-74
2023/09/22 06:11:00;;;;;;;0.38;0.38;;;22.60;53.60;;;;;;5108561;27;45373;-74
2023/09/22 06:13:27;;;;;;;0.40;0.40;;;22.50;53.60;;;;;;5108753;27;45306;-74
2023/09/22 06:15:56;;;;;;;0.25;0.20;;;22.60;53.60;;;;;;5110853;27;45218;-74
2023/09/22 06:18:24;;;;;;;0.55;0.50;;;22.50;53.60;;;;;;5110310;27;45451;-73
2023/09/22 06:20:53;;;;;;;0.50;0.50;;;22.50;53.60;;;;;;5109720;27;45339;-74
2023/09/22 06:23:20;;;;;;;0.40;0.35;;;22.50;53.60;;;;;;5111237;27;45359;-74
2023/09/22 06:25:47;;;;;;;0.45;0.45;;;22.50;53.60;;;;;;5110473;27;45568;-74
2023/09/22 06:28:15;;;;;;;0.40;0.40;;;22.50;53.70;;;;;;5109739;27;45481;-74
2023/09/22 06:30:46;;;;;;;0.40;0.40;;;22.50;53.60;;;;;;5110212;27;45274;-74
2023/09/22 06:33:15;;;;;;;0.30;0.30;;;22.50;53.60;;;;;;5109333;27;45506;-74
2023/09/22 06:35:43;;;;;;;0.25;0.25;;;22.50;53.70;;;;;;5109404;27;45405;-73
2023/09/22 06:38:10;;;;;;;0.47;0.30;;;22.50;53.80;;;;;;5109322;27;47318;-74
2023/09/22 06:40:37;;;;;;;1.85;0.30;;;22.50;53.80;;;;;;5110121;27;45295;-74
2023/09/22 06:43:05;;;;;;;0.35;0.35;;;22.50;53.80;;;;;;5110008;27;45287;-75
2023/09/22 06:45:33;;;;;;;1.92;0.40;;;22.40;53.90;;;;;;5110060;27;45204;-74
2023/09/22 06:48:00;;;;;;;0.95;0.43;;;22.50;53.90;;;;;;5108946;27;46379;-74
2023/09/22 06:50:29;;;;;;;2.40;0.40;;;22.50;53.90;;;;;;5109040;27;45378;-75
2023/09/22 06:52:58;;;;;;;0.40;0.40;;;22.50;53.90;;;;;;5111261;27;45268;-73
2023/09/22 06:55:25;;;;;;;0.40;0.40;;;22.50;53.90;;;;;;5113075;27;45306;-74
2023/09/22 06:57:52;;;;;;;0.52;0.30;;;22.50;53.90;;;;;;5112478;27;45461;-75
2023/09/22 07:00:22;;;;;;;0.30;0.30;;;22.50;53.90;;;;;;5112589;27;45304;-74
2023/09/22 07:02:49;;;;;;;1.30;0.35;;;22.50;53.80;;;;;;5112199;27;45298;-74
2023/09/22 07:05:23;;;;;;;0.50;0.35;;;22.50;53.80;;;;;;5113122;27;45289;-74
2023/09/22 07:07:52;;;;;;;0.40;0.40;;;22.40;53.80;;;;;;5112458;27;45295;-74
2023/09/22 07:10:19;;;;;;;0.80;0.60;;;22.40;53.80;;;;;;5112430;27;45460;-75
2023/09/22 07:12:46;;;;;;;0.20;0.20;;;22.40;53.90;;;;;;5112467;27;45432;-74
2023/09/22 07:15:14;;;;;;;0.43;0.43;;;22.40;53.80;;;;;;5113238;27;45367;-75
2023/09/22 07:17:42;;;;;;;0.30;0.30;;;22.40;53.80;;;;;;5112030;27;45268;-74
2023/09/22 07:20:13;;;;;;;2.35;0.32;;;22.40;53.80;;;;;;5112306;27;45385;-74
2023/09/22 07:22:41;;;;;;;0.65;0.65;;;22.40;53.90;;;;;;5111328;27;45296;-75
2023/09/22 07:25:11;;;;;;;0.20;0.20;;;22.40;53.80;;;;;;5113051;27;45269;-74
2023/09/22 07:27:39;;;;;;;1.55;0.40;;;22.40;53.80;;;;;;5112047;27;46321;-74
2023/09/22 07:30:09;;;;;;;0.20;0.20;;;22.40;53.80;;;;;;5112319;27;45185;-74
2023/09/22 07:32:36;;;;;;;0.45;0.40;;;22.40;53.70;;;;;;5112473;27;45350;-74
2023/09/22 07:35:04;;;;;;;0.35;0.35;;;22.40;53.70;;;;;;5113079;27;45287;-75
2023/09/22 07:37:31;;;;;;;0.55;0.38;;;22.40;53.70;;;;;;5112899;27;47312;-75
2023/09/22 07:39:58;;;;;;;0.57;0.45;;;22.40;53.70;;;;;;5112711;27;45309;-75
2023/09/22 07:42:31;;;;;;;0.73;0.30;;;22.40;53.70;;;;;;5112680;27;45231;-75
2023/09/22 07:44:58;;;;;;;0.40;0.40;;;22.40;53.70;;;;;;5113816;27;45363;-74
2023/09/22 07:47:25;;;;;;;0.50;0.45;;;22.40;53.70;;;;;;5113352;27;45316;-75
2023/09/22 07:49:54;;;;;;;0.40;0.40;;;22.40;53.70;;;;;;5114746;27;45318;-75
2023/09/22 07:52:22;;;;;;;1.48;0.50;;;22.40;53.60;;;;;;5113708;27;45256;-75
2023/09/22 07:54:50;;;;;;;2.05;0.60;;;22.40;53.70;;;;;;5112789;27;45433;-75
2023/09/22 07:57:17;;;;;;;0.40;0.35;;;22.40;53.60;;;;;;5092199;27;45400;-75
2023/09/22 07:59:45;;;;;;;0.50;0.50;;;22.50;53.60;;;;;;5091930;27;45276;-74
2023/09/22 08:02:12;;;;;;;0.40;0.30;;;22.50;53.70;;;;;;5091953;27;45312;-75
2023/09/22 08:04:39;;;;;;;0.50;0.30;;;22.50;53.70;;;;;;5091442;27;45297;-75
2023/09/22 08:07:06;;;;;;;0.60;0.40;;;22.50;53.50;;;;;;5091588;27;46607;-75
2023/09/22 08:09:33;;;;;;;0.63;0.50;;;22.50;53.60;;;;;;5091482;27;45139;-75
2023/09/22 08:12:01;;;;;;;0.68;0.40;;;22.50;53.50;;;;;;5106436;27;45206;-75
2023/09/22 08:14:28;;;;;;;0.20;0.20;;;22.50;53.50;;;;;;5111659;27;45409;-74
2023/09/22 08:16:57;;;;;;;0.40;0.40;;;22.50;53.50;;;;;;5111119;27;45274;-74
2023/09/22 08:19:23;;;;;;;0.40;0.40;;;22.50;53.50;;;;;;5112145;27;45265;-75
2023/09/22 08:21:50;;;;;;;0.30;0.30;;;22.50;53.40;;;;;;5112908;27;45238;-74
2023/09/22 08:24:17;;;;;;;0.38;0.38;;;22.50;53.40;;;;;;5109551;27;45283;-74
2023/09/22 08:26:44;;;;;;;0.30;0.30;;;22.50;53.40;;;;;;5111841;27;46371;-74
2023/09/22 08:29:11;;;;;;;0.32;0.30;;;22.50;53.40;;;;;;5111448;27;45290;-74
2023/09/22 08:31:38;;;;;;;0.30;0.30;;;22.50;53.40;;;;;;5108786;27;45326;-75
2023/09/22 08:34:06;;;;;;;0.65;0.50;;;22.60;53.40;;;;;;5111316;27;45184;-74
2023/09/22 08:36:33;;;;;;;0.60;0.38;;;22.60;53.30;;;;;;5110749;27;45478;-74
2023/09/22 08:39:00;;;;;;;0.38;0.38;;;22.60;53.30;;;;;;5111037;27;45468;-74
2023/09/22 08:41:27;;;;;;;0.40;0.40;;;22.60;53.20;;;;;;5111047;27;45314;-74
2023/09/22 08:43:55;;;;;;;0.40;0.40;;;22.60;53.30;;;;;;5110991;27;45202;-74
2023/09/22 08:46:23;;;;;;;0.30;0.30;;;22.60;53.30;;;;;;5111192;27;47565;-75
2023/09/22 08:48:51;;;;;;;0.77;0.55;;;22.60;53.30;;;;;;5110631;27;45368;-74
2023/09/22 08:51:19;;;;;;;0.50;0.50;;;22.60;53.30;;;;;;5110712;27;45295;-74
2023/09/22 08:53:46;;;;;;;0.75;0.50;;;22.60;53.20;;;;;;5110716;27;45267;-73
2023/09/22 08:56:14;;;;;;;2.05;0.47;;;22.60;53.20;;;;;;5111601;27;46292;-74
2023/09/22 08:58:45;;;;;;;0.75;0.47;;;22.60;53.10;;;;;;5110123;27;45295;-70
2023/09/22 09:01:12;;;;;;;0.68;0.38;;;22.60;53.20;;;;;;5109155;27;45260;-66
2023/09/22 09:03:41;;;;;;;0.50;0.50;;;22.60;53.20;;;;;;5107703;27;45352;-65
2023/09/22 09:06:08;;;;;;;0.43;0.38;;;22.60;53.20;;;;;;5109724;27;45298;-65
2023/09/22 09:08:36;;;;;;;1.17;0.40;;;22.60;53.10;;;;;;5108663;27;45264;-67
2023/09/22 09:11:10;;;;;;;1.08;0.30;;;22.60;53.20;;;;;;5108546;27;45457;-66
2023/09/22 09:13:38;;;;;;;0.60;0.60;;;22.60;53.20;;;;;;5108247;27;45257;-65
2023/09/22 09:16:07;;;;;;;0.38;0.38;;;22.70;53.20;;;;;;5107013;27;46376;-66
2023/09/22 09:18:34;;;;;;;1.35;0.60;;;22.70;53.10;;;;;;5108233;27;45263;-66
2023/09/22 09:21:09;;;;;;;0.45;0.40;;;22.70;53.00;;;;;;5108252;27;45272;-69
2023/09/22 09:23:37;;;;;;;5.88;0.50;;;22.70;53.10;;;;;;5108358;27;45430;-66
2023/09/22 09:26:04;;;;;;;0.60;0.50;;;22.70;53.10;;;;;;5108245;27;46401;-64
2023/09/22 09:28:31;;;;;;;1.90;0.43;;;22.70;53.00;;;;;;5107970;27;45263;-64
2023/09/22 09:30:58;;;;;;;1.00;0.47;;;22.70;52.90;;;;;;5108343;27;45276;-64
2023/09/22 09:33:26;;;;;;;0.60;0.60;;;22.70;52.80;;;;;;5108166;27;45155;-65
2023/09/22 09:35:53;;;;;;;1.98;0.55;;;22.70;52.90;;;;;;5107044;27;46392;-64
2023/09/22 09:38:23;;;;;;;1.75;0.60;;;22.70;52.90;;;;;;5108118;27;45301;-64
2023/09/22 09:40:52;;;;;;;0.63;0.63;;;22.70;52.80;;;;;;5108474;27;45238;-64
2023/09/22 09:43:20;;;;;;;0.75;0.60;;;22.70;52.80;;;;;;5108238;27;45458;-64
2023/09/22 09:45:51;;;;;;;0.70;0.63;;;22.80;52.80;;;;;;5107694;27;46374;-65
2023/09/22 09:48:19;;;;;;;1.73;0.80;;;22.80;52.60;;;;;;5108027;27;45356;-64
2023/09/22 09:50:47;;;;;;;0.60;0.60;;;22.80;52.60;;;;;;5107409;27;45294;-65
2023/09/22 09:53:19;;;;;;;1.40;0.80;;;22.90;52.60;;;;;;5106296;27;45264;-64
2023/09/22 09:55:46;;;;;;;1.35;0.47;;;22.90;52.40;;;;;;5106767;27;45465;-63
2023/09/22 09:58:14;;;;;;;1.80;0.57;;;22.90;52.50;;;;;;5106372;27;45138;-64
2023/09/22 10:00:50;;;;;;;0.88;0.60;;;22.90;52.80;;;;;;5106183;27;45259;-64
2023/09/22 10:03:21;;;;;;;1.70;0.57;;;22.90;53.30;;;;;;5107155;27;45274;-64
2023/09/22 10:05:52;;;;;;;1.20;0.75;;;22.90;53.50;;;;;;5105840;27;46234;-65
2023/09/22 10:08:21;;;;;;;2.53;0.90;;;22.90;53.30;;;;;;5098446;27;45278;-66
2023/09/22 10:10:49;;;;;;;0.75;0.73;;;22.90;53.50;;;;;;5107185;27;45395;-63
2023/09/22 10:13:17;;;;;;;2.20;0.85;;;23.00;53.80;;;;;;5107265;27;45414;-62
2023/09/22 10:15:55;;;;;;;4.20;1.08;;;23.00;53.80;;;;;;5106464;27;45522;-62
2023/09/22 10:18:23;;;;;;;2.45;0.88;;;23.00;54.20;;;;;;5106730;27;45389;-65
2023/09/22 10:20:50;;;;;;;2.13;0.77;;;23.00;53.60;;;;;;5106345;27;45256;-62
2023/09/22 10:23:18;;;;;;;1.63;0.88;;;23.00;53.90;;;;;;5107323;27;45300;-63
2023/09/22 10:26:12;;;;;;;2.83;0.90;;;23.00;53.90;;;;;;5106371;27;46417;-63
2023/09/22 10:28:40;;;;;;;2.08;0.98;;;22.90;53.90;;;;;;5105268;27;45571;-63
2023/09/22 10:31:08;;;;;;;1.42;0.77;;;23.00;53.80;;;;;;5106792;27;45371;-63
2023/09/22 10:33:35;;;;;;;3.38;1.05;;;22.90;53.80;;;;;;5105310;27;45386;-65
2023/09/22 10:36:04;;;;;;;1.95;0.95;;;23.00;53.80;;;;;;5107322;27;45338;-63
2023/09/22 10:38:51;;;;;;;2.30;1.10;;;23.00;53.90;;;;;;5108722;27;45335;-65
2023/09/22 10:41:18;;;;;;;1.40;1.02;;;23.10;54.00;;;;;;5108582;27;45206;-63
2023/09/22 10:44:02;;;;;;;3.25;1.00;;;23.10;54.10;;;;;;5106219;27;45531;-65
2023/09/22 10:46:29;;;;;;;3.60;1.05;;;23.10;54.10;;;;;;5109884;27;45256;-66
2023/09/22 10:48:57;;;;;;;2.35;0.95;;;23.10;53.60;;;;;;5094854;27;45311;-67
2023/09/22 10:51:43;;;;;;;4.70;0.90;;;23.10;53.60;;;;;;5107778;27;45425;-64
2023/09/22 10:54:13;;;;;;;8.27;1.10;;;23.20;53.40;;;;;;5108554;27;45282;-68
2023/09/22 10:56:40;;;;;;;1.95;1.02;;;23.30;53.30;;;;;;5106390;27;45205;-65
2023/09/22 10:59:11;;;;;;;1.23;1.00;;;23.40;53.20;;;;;;5095954;27;45192;-66
2023/09/22 11:01:45;;;;;;;3.65;0.80;;;23.50;53.10;;;;;;5088488;27;45302;-65
2023/09/22 11:04:12;;;;;;;2.40;0.60;;;23.50;52.90;;;;;;5090569;27;45349;-67
2023/09/22 11:06:46;;;;;;;4.32;0.82;;;23.50;52.80;;;;;;5101083;27;45473;-65
2023/09/22 11:09:14;;;;;;;3.72;0.82;;;23.60;52.70;;;;;;5105508;27;45219;-65
2023/09/22 11:11:45;;;;;;;2.95;1.52;;;23.60;52.50;;;;;;5102846;27;45402;-64
2023/09/22 11:14:13;;;;;;;2.80;1.33;;;23.70;52.30;;;;;;5104514;27;45432;-66
2023/09/22 11:16:40;;;;;;;3.47;2.63;;;23.70;52.10;;;;;;5103354;27;46558;-65
2023/09/22 11:19:08;;;;;;;9.43;4.90;;;23.70;52.30;;;;;;5103574;27;45410;-66
2023/09/22 11:21:38;;;;;;;12.23;8.55;;;23.70;52.20;;;;;;5100992;27;45465;-66
2023/09/22 11:24:06;;;;;;;9.55;5.30;;;23.80;52.00;;;;;;5105099;27;45197;-65
2023/09/22 11:26:40;;;;;;;9.25;4.40;;;23.80;51.70;;;;;;5103538;27;45582;-66
2023/09/22 11:29:07;;;;;;;4.22;3.22;;;24.00;51.40;;;;;;5100423;27;45467;-65
2023/09/22 11:31:36;;;;;;;4.60;3.70;;;24.10;50.90;;;;;;5103854;27;45511;-68
2023/09/22 11:34:03;;;;;;;4.18;2.88;;;24.20;51.00;;;;;;5103192;27;45522;-64
2023/09/22 11:36:46;;;;;;;4.28;2.40;;;24.30;50.50;;;;;;5102223;27;45425;-66
2023/09/22 11:39:24;;;;;;;4.93;3.10;;;24.20;50.60;;;;;;5100990;27;45544;-65
2023/09/22 11:41:51;;;;;;;4.43;2.03;;;24.30;50.80;;;;;;5108557;27;45248;-66
2023/09/22 11:44:17;;;;;;;2.33;1.40;;;24.30;50.30;;;;;;5107844;27;45458;-66
2023/09/22 11:46:48;;;;;;;2.55;1.38;;;24.30;49.70;;;;;;5107146;27;46409;-64
2023/09/22 11:49:14;;;;;;;3.00;2.05;;;24.40;49.90;;;;;;5101974;27;45498;-63
2023/09/22 11:51:48;;;;;;;3.85;1.58;;;24.50;50.20;;;;;;5098869;27;45294;-64
2023/09/22 11:54:16;;;;;;;4.50;1.63;;;24.70;49.20;;;;;;5107775;27;45621;-63
2023/09/22 11:56:43;;;;;;;1.83;1.17;;;24.70;49.10;;;;;;5105329;27;45750;-64
2023/09/22 11:59:14;;;;;;;5.22;1.60;;;24.70;48.40;;;;;;5105313;27;45584;-65
2023/09/22 12:01:40;;;;;;;3.15;1.75;;;24.90;49.40;;;;;;5102727;27;45460;-65
2023/09/22 12:04:09;;;;;;;2.50;1.35;;;25.00;49.30;;;;;;5109453;27;45364;-65
2023/09/22 12:06:37;;;;;;;1.77;1.40;;;25.00;49.00;;;;;;5106339;27;45685;-64
2023/09/22 12:09:04;;;;;;;1.98;1.60;;;25.10;48.80;;;;;;5106359;27;45531;-64
2023/09/22 12:11:32;;;;;;;2.75;1.60;;;25.20;48.90;;;;;;5109961;27;45475;-65
2023/09/22 12:14:00;;;;;;;1.67;1.30;;;25.30;48.20;;;;;;5109382;27;45507;-68
2023/09/22 12:16:27;;;;;;;3.38;1.90;;;25.30;48.40;;;;;;5105732;27;45728;-65
2023/09/22 12:18:54;;;;;;;2.50;1.73;;;25.30;48.10;;;;;;5107578;27;45407;-65
2023/09/22 12:21:23;;;;;;;4.90;1.50;;;25.40;47.60;;;;;;5108235;27;45309;-66
2023/09/22 12:23:50;;;;;;;2.45;1.77;;;25.50;48.50;;;;;;5107563;27;44863;-67
2023/09/22 12:26:17;;;;;;;2.38;1.67;;;25.50;47.80;;;;;;5107257;27;45463;-68
2023/09/22 12:28:47;;;;;;;4.47;1.85;;;25.60;47.60;;;;;;5101078;27;45516;-66
2023/09/22 12:31:13;;;;;;;5.32;1.88;;;25.70;48.60;;;;;;5099234;27;45539;-65
2023/09/22 12:33:40;;;;;;;3.92;1.33;;;25.70;47.60;;;;;;5107749;27;45434;-66
2023/09/22 12:36:07;;;;;;;3.38;1.55;;;25.80;47.30;;;;;;5108109;27;45409;-66
2023/09/22 12:38:36;;;;;;;5.15;1.73;;;25.90;47.00;;;;;;5107509;27;45393;-66
2023/09/22 12:41:04;;;;;;;1.70;1.17;;;25.80;47.40;;;;;;5111502;27;45408;-65
2023/09/22 12:43:31;;;;;;;5.30;1.60;;;25.70;47.40;;;;;;5126499;27;45338;-67
2023/09/22 12:45:58;;;;;;;3.38;1.42;;;25.60;47.40;;;;;;5107613;27;46650;-66
2023/09/22 12:48:25;;;;;;;2.13;1.35;;;25.60;47.50;;;;;;5107541;27;45327;-63
2023/09/22 12:50:56;;;;;;;2.22;1.35;;;25.60;47.60;;;;;;5106956;27;45424;-63
2023/09/22 12:53:24;;;;;;;5.18;1.27;;;25.50;47.60;;;;;;5107330;27;45359;-63